Hilbert, WI

9:57 AM CST on January 21, 2017 (GMT -0600)
Sherwood - Christ the King | | Change Station

Elev 908 ft 44.16 °N, 88.26 °W | Updated 13 seconds ago

Fog
Fog
36.1 °F
Feels Like 30 °F
N
8.3
Wind Variable Wind from ESE

Today
High -- | Low -- °F
--% Chance of Precip.
Yesterday
High -- | Low -- °F
Precip. -- in
Pressure 29.50 in
Visibility 0.1 miles
Clouds
Windchill 30 °F
Dew Point 36 °F
Humidity 98%
Rainfall 0.02 in
Snow Depth Not available.
7:20 AM 4:48 PM
Waning Crescent, 34% visible
METAR KATW 211545Z 07005KT 1/8SM R03/0800FT FG VV002 02/02 A2950
Pressure 29.50 in
Visibility 0.1 miles
Clouds
Windchill 30 °F
Dew Point 36 °F
Humidity 98%
Rainfall 0.02 in
Snow Depth Not available.
7:20 AM 4:48 PM
Waning Crescent, 34% visible
METAR KATW 211545Z 07005KT 1/8SM R03/0800FT FG VV002 02/02 A2950

Get Your Daily Forecast Email!

Thanks for signing up!

Be on the lookout for a verification email in your inbox.

You'll start receiving the daily forecast at 8 AM.

×

10-Day Weather Forecast

Almanac

Astronomy

Jan. 21, 2017 Rise Set
Actual Time
Civil Twilight
Nautical Twilight
Astronomical Twilight
Moon
Length of Visible Light
Length of Day
Tomorrow will be .
, % of the Moon is Illuminated

Today's Extremes

State Highs State Lows

Community

WunderPhotos

Upload Photos

1,962,540 photos uploaded!

WunderBlog® & News

Nearby

Air Quality

  Air Quality AQ Index Pollutant
Not available.

Snow Depth

Station Depth Elevation

Earthquake Activity

City Distance Mag. Time & Date
Minimum magnitude displayed is 2.5.

Coastal Water Temperatures

Place Temperature

Stations

Nearby Weather Stations

Station Location Temp. Windchill Dew Point Humidity Wind Precip. Elev Updated Type
                   

Watches & Warnings

Dense Fog Advisory
Issued: 12:23 AM CST Jan. 21, 2017 – National Weather Service

... Dense fog advisory in effect until noon CST today...

The National Weather Service in Green Bay has issued a dense fog
advisory... which is in effect until noon CST today.

* Visibilities will drop to a quarter mile or less at times.

* Poor visibilities will result in hazardous driving conditions.

Precautionary/preparedness actions...

A dense fog advisory means visibilities will frequently be
reduced to less than one quarter mile. If driving... slow down...
use your low beam headlights... and keep a safe distance from
other vehicles.





Marine Fog Advisory
Issued: 2:47 AM CST Jan. 21, 2017 – National Weather Service

... Dense fog advisory remains in effect until noon CST today...

* visibility: reduced to under one mile... and as low as one-
quarter of a mile at times.

Precautionary/preparedness actions...

A dense fog advisory means visibilities will frequently be
reduced to less than one mile. Inexperienced mariners...
especially those operating smaller vessels should avoid
navigating in these conditions.